Time;durP1;ratioP1;P1;durP2;ratioP2;P2;SDS_P1;SDS_P2;PMS_P1;PMS_P2;Temp;Humidity;BMP_temperature;BMP_pressure;BME280_temperature;BME280_humidity;BME280_pressure;Samples;Min_cycle;Max_cycle;Signal;HPM_P1;HPM_P2
2021/01/19 04:15:25;;;;;;;1.70;1.60;;;-15.60;87.10;;;;;;4953213;29;20058;-75
2021/01/19 04:17:52;;;;;;;1.70;1.60;;;-15.70;87.20;;;;;;4953512;29;20066;-74
2021/01/19 04:20:17;;;;;;;1.45;1.35;;;-15.60;87.40;;;;;;4953630;29;20027;-74
2021/01/19 04:22:43;;;;;;;1.45;1.42;;;-15.70;87.40;;;;;;4953264;29;20023;-72
2021/01/19 04:25:09;;;;;;;3.42;1.65;;;-15.70;87.20;;;;;;4953489;29;20035;-73
2021/01/19 04:27:35;;;;;;;1.90;1.75;;;-15.80;87.20;;;;;;4953552;29;20050;-72
2021/01/19 04:30:07;;;;;;;2.22;1.80;;;-15.80;87.40;;;;;;4953551;29;20380;-72
2021/01/19 04:32:34;;;;;;;2.80;1.77;;;-15.80;88.40;;;;;;4955534;28;20387;-72
2021/01/19 04:34:59;;;;;;;1.80;1.70;;;-15.70;87.80;;;;;;4956993;29;20534;-72
2021/01/19 04:37:25;;;;;;;1.80;1.70;;;-15.70;87.70;;;;;;4956974;29;20031;-72
2021/01/19 04:39:51;;;;;;;2.00;1.90;;;-15.70;87.80;;;;;;4957076;29;20035;-72
2021/01/19 04:42:19;;;;;;;1.70;1.60;;;-15.70;87.90;;;;;;4956904;29;20522;-72
2021/01/19 04:44:45;;;;;;;1.88;1.70;;;-15.80;87.90;;;;;;4956712;28;20050;-72
2021/01/19 04:47:12;;;;;;;1.63;1.52;;;-15.70;88.00;;;;;;4957001;29;20019;-72
2021/01/19 04:49:39;;;;;;;1.70;1.60;;;-15.80;87.90;;;;;;4956684;29;20034;-71
2021/01/19 04:52:05;;;;;;;1.83;1.70;;;-15.80;88.10;;;;;;4956785;29;20025;-71
2021/01/19 04:55:09;;;;;;;1.75;1.67;;;-15.80;88.50;;;;;;4956717;29;20023;-71
2021/01/19 04:57:36;;;;;;;2.33;1.70;;;-15.70;88.50;;;;;;4934109;29;20039;-73
2021/01/19 05:00:10;;;;;;;1.80;1.70;;;-15.80;88.20;;;;;;4956909;29;20023;-73
2021/01/19 05:03:16;;;;;;;1.85;1.75;;;-15.80;88.30;;;;;;4956619;29;20051;-74
2021/01/19 05:06:34;;;;;;;1.55;1.52;;;-15.80;88.70;;;;;;4956713;28;20082;-73
2021/01/19 05:09:07;;;;;;;1.98;1.65;;;-15.80;88.60;;;;;;4956532;28;20035;-71
2021/01/19 05:11:46;;;;;;;1.80;1.70;;;-15.80;88.80;;;;;;4956453;29;20028;-71
2021/01/19 05:14:18;;;;;;;1.88;1.77;;;-15.80;89.10;;;;;;4954925;29;20150;-71
2021/01/19 05:16:44;;;;;;;1.48;1.38;;;-15.80;89.70;;;;;;4956093;29;20161;-71
2021/01/19 05:19:10;;;;;;;2.53;1.77;;;-15.80;89.60;;;;;;4956202;29;20494;-71
2021/01/19 05:21:39;;;;;;;1.73;1.63;;;-15.80;89.50;;;;;;4955906;29;20019;-71
2021/01/19 05:24:06;;;;;;;1.90;1.80;;;-15.80;89.70;;;;;;4956357;29;20063;-71
2021/01/19 05:26:35;;;;;;;1.63;1.52;;;-15.80;90.00;;;;;;4955925;29;20031;-71
2021/01/19 05:29:05;;;;;;;1.70;1.60;;;-15.80;90.00;;;;;;4956106;29;20031;-70
2021/01/19 05:31:31;;;;;;;2.88;1.58;;;-15.80;90.20;;;;;;4955813;29;20479;-72
2021/01/19 05:33:57;;;;;;;1.92;1.83;;;-15.80;90.30;;;;;;4956074;29;20042;-75
2021/01/19 05:36:27;;;;;;;2.00;1.90;;;-15.70;90.40;;;;;;4955946;29;20027;-70
2021/01/19 05:38:54;;;;;;;1.70;1.60;;;-15.70;90.30;;;;;;4955871;29;20023;-74
2021/01/19 05:41:35;;;;;;;1.67;1.60;;;-15.60;90.40;;;;;;4955823;29;20023;-74
2021/01/19 05:44:23;;;;;;;1.73;1.63;;;-15.40;99.90;;;;;;4954904;28;20035;-71
2021/01/19 05:46:58;;;;;;;2.03;1.38;;;-14.70;99.90;;;;;;4954265;29;20039;-71
2021/01/19 05:49:25;;;;;;;1.80;1.70;;;-14.40;99.90;;;;;;4955623;29;20031;-73
2021/01/19 05:52:12;;;;;;;1.92;1.65;;;-14.70;99.90;;;;;;4955311;29;20024;-72
2021/01/19 05:54:42;;;;;;;4.72;1.80;;;-15.00;94.90;;;;;;4955347;28;20530;-74
2021/01/19 05:57:10;;;;;;;;;;;-15.10;93.60;;;;;;4954925;29;20028;-77
2021/01/19 05:59:43;;;;;;;3.20;1.90;;;-15.10;92.40;;;;;;4954842;28;19910;-77
2021/01/19 06:02:14;;;;;;;1.65;1.55;;;-15.20;91.60;;;;;;4954547;29;20122;-77
2021/01/19 06:04:49;;;;;;;2.15;1.95;;;-15.20;91.50;;;;;;4954552;29;20043;-75
2021/01/19 06:07:16;;;;;;;1.70;1.60;;;-15.30;91.20;;;;;;4954683;29;20447;-75
2021/01/19 06:09:44;;;;;;;2.05;1.90;;;-15.20;91.40;;;;;;4954341;29;20113;-75
2021/01/19 06:12:10;;;;;;;1.85;1.75;;;-15.20;91.20;;;;;;4953075;29;20147;-75
2021/01/19 06:14:37;;;;;;;1.90;1.80;;;-15.30;91.10;;;;;;4954485;28;20043;-74
2021/01/19 06:17:10;;;;;;;1.73;1.63;;;-15.20;91.20;;;;;;4954908;29;20027;-74
2021/01/19 06:19:37;;;;;;;2.03;1.88;;;-15.20;91.20;;;;;;4954325;29;20043;-74
2021/01/19 06:22:23;;;;;;;2.38;1.70;;;-15.20;91.10;;;;;;4954627;29;20106;-70
2021/01/19 06:24:51;;;;;;;2.50;2.30;;;-15.10;91.20;;;;;;4954528;29;20043;-71
2021/01/19 06:27:22;;;;;;;16.95;6.53;;;-15.10;91.30;;;;;;4954872;29;20027;-71
2021/01/19 06:30:10;;;;;;;24.48;10.13;;;-15.10;91.40;;;;;;4955058;29;20050;-73
2021/01/19 06:32:38;;;;;;;12.05;5.57;;;-15.00;99.80;;;;;;4954696;28;20035;-73
2021/01/19 06:35:12;;;;;;;3.42;2.50;;;-14.20;99.90;;;;;;4954792;29;20034;-73
2021/01/19 06:37:38;;;;;;;3.67;2.90;;;-14.20;99.90;;;;;;4954553;29;20605;-73
2021/01/19 06:40:07;;;;;;;1.90;1.80;;;-14.40;96.30;;;;;;4954708;29;20027;-73
2021/01/19 06:42:34;;;;;;;2.38;2.00;;;-14.50;94.60;;;;;;4954554;29;20019;-73
2021/01/19 06:45:04;;;;;;;2.15;2.05;;;-14.50;93.50;;;;;;4954604;28;20074;-73
2021/01/19 06:47:41;;;;;;;2.15;1.77;;;-13.60;99.90;;;;;;4954572;29;20051;-73
2021/01/19 06:50:08;;;;;;;3.05;2.80;;;-12.20;99.90;;;;;;4954642;29;20397;-72
2021/01/19 06:52:42;;;;;;;4.78;2.08;;;-12.10;99.90;;;;;;4954531;29;20020;-72
2021/01/19 06:55:39;;;;;;;2.20;2.00;;;-12.90;99.90;;;;;;4954520;28;20034;-71
2021/01/19 06:58:07;;;;;;;1.50;1.40;;;-13.50;99.90;;;;;;4954025;28;20041;-75
2021/01/19 07:00:41;;;;;;;4.20;1.65;;;-13.90;97.70;;;;;;4954468;29;20023;-75
2021/01/19 07:03:27;;;;;;;1.88;1.77;;;-14.20;95.10;;;;;;4954450;29;20447;-76
2021/01/19 07:05:59;;;;;;;3.97;1.85;;;-14.30;93.80;;;;;;4954253;28;20392;-75
2021/01/19 07:08:55;;;;;;;3.30;1.92;;;-14.40;92.90;;;;;;4954107;29;20480;-74
2021/01/19 07:11:56;;;;;;;1.92;1.80;;;-14.40;92.80;;;;;;4953549;29;20074;-74
2021/01/19 07:14:35;;;;;;;1.80;1.70;;;-14.40;92.00;;;;;;4951700;29;20127;-71
2021/01/19 07:17:07;;;;;;;2.25;1.75;;;-14.50;91.70;;;;;;4954017;29;20035;-72
2021/01/19 07:19:43;;;;;;;2.13;1.73;;;-14.50;91.40;;;;;;4954200;29;20019;-72
2021/01/19 07:22:12;;;;;;;4.93;1.90;;;-14.60;91.00;;;;;;4954075;29;20027;-76
2021/01/19 07:24:42;;;;;;;3.17;2.22;;;-14.60;91.20;;;;;;4953804;29;20035;-74
2021/01/19 07:27:10;;;;;;;6.57;2.53;;;-14.60;91.10;;;;;;4954041;29;20027;-74
2021/01/19 07:29:37;;;;;;;4.57;2.30;;;-14.60;91.20;;;;;;4953890;29;20023;-73
2021/01/19 07:32:18;;;;;;;5.20;2.17;;;-14.60;91.00;;;;;;4953975;29;20054;-74
2021/01/19 07:34:45;;;;;;;2.72;2.35;;;-14.60;91.20;;;;;;4953900;29;20027;-70
2021/01/19 07:37:11;;;;;;;3.03;2.20;;;-14.60;91.30;;;;;;4953896;28;20027;-72
2021/01/19 07:39:37;;;;;;;8.25;2.30;;;-14.50;91.80;;;;;;4948599;29;20037;-73
2021/01/19 07:42:15;;;;;;;2.90;2.00;;;-14.50;92.10;;;;;;4952851;28;20082;-77
2021/01/19 07:44:42;;;;;;;3.55;2.33;;;-14.50;92.20;;;;;;4952417;29;20062;-78
2021/01/19 07:47:17;;;;;;;2.63;2.22;;;-14.40;92.30;;;;;;4953133;29;20368;-78
2021/01/19 07:49:43;;;;;;;1.73;1.63;;;-14.40;92.00;;;;;;4953283;29;20054;-78
2021/01/19 07:52:13;;;;;;;2.03;1.83;;;-13.60;99.90;;;;;;4953534;29;20490;-78
2021/01/19 07:54:40;;;;;;;3.08;1.90;;;-13.00;99.90;;;;;;4953678;28;20035;-77
2021/01/19 07:57:15;;;;;;;1.77;1.67;;;-13.40;99.90;;;;;;4951317;28;20023;-79
2021/01/19 07:59:44;;;;;;;2.00;1.80;;;-13.70;98.80;;;;;;4953060;29;20035;-79
2021/01/19 08:02:22;;;;;;;2.25;2.03;;;-13.90;96.50;;;;;;4951807;29;20058;-74
2021/01/19 08:04:59;;;;;;;1.90;1.80;;;-14.00;94.60;;;;;;4953008;29;20043;-74
2021/01/19 08:07:24;;;;;;;1.77;1.58;;;-14.10;93.90;;;;;;4955367;28;20029;-75
2021/01/19 08:09:50;;;;;;;5.78;2.28;;;-14.10;93.40;;;;;;4956195;29;20391;-75
2021/01/19 08:12:16;;;;;;;2.25;2.05;;;-14.10;93.10;;;;;;4956117;29;20024;-75
2021/01/19 08:14:44;;;;;;;2.00;1.90;;;-14.10;93.20;;;;;;4956390;29;20403;-76
2021/01/19 08:17:11;;;;;;;2.75;2.05;;;-14.10;93.20;;;;;;4956932;28;20030;-75
2021/01/19 08:19:39;;;;;;;2.05;1.95;;;-14.00;93.30;;;;;;4957088;29;20388;-76
2021/01/19 08:22:06;;;;;;;1.63;1.52;;;-14.00;93.60;;;;;;4956986;29;20046;-75
2021/01/19 08:24:32;;;;;;;2.60;2.10;;;-14.00;93.10;;;;;;4957049;29;20044;-76
2021/01/19 08:26:58;;;;;;;2.83;1.77;;;-14.00;92.90;;;;;;4956644;28;20446;-77
2021/01/19 08:29:25;;;;;;;2.60;2.00;;;-14.00;93.20;;;;;;4955100;28;20523;-74
2021/01/19 08:32:01;;;;;;;2.25;1.65;;;-14.00;93.30;;;;;;4950311;28;20023;-74
2021/01/19 08:34:30;;;;;;;3.90;2.00;;;-13.90;93.60;;;;;;4956385;28;20031;-76
2021/01/19 08:36:57;;;;;;;2.38;1.70;;;-13.90;93.70;;;;;;4956406;29;20015;-75
2021/01/19 08:39:23;;;;;;;1.90;1.77;;;-13.80;93.50;;;;;;4956864;29;20110;-74
2021/01/19 08:41:51;;;;;;;2.72;1.88;;;-13.70;93.50;;;;;;4956419;29;20046;-75
2021/01/19 08:44:17;;;;;;;1.80;1.70;;;-12.30;99.90;;;;;;4956811;29;20113;-68
2021/01/19 08:46:44;;;;;;;2.67;1.80;;;-10.90;99.90;;;;;;4952904;29;20038;-75
2021/01/19 08:49:11;;;;;;;2.10;1.63;;;-8.50;99.90;;;;;;4937308;29;20059;-75
2021/01/19 08:51:41;;;;;;;3.47;2.15;;;-9.20;99.90;;;;;;4937149;29;20027;-75
2021/01/19 08:54:08;;;;;;;3.03;2.28;;;-10.40;99.90;;;;;;4937435;29;20124;-75
2021/01/19 08:56:39;;;;;;;2.13;1.80;;;-11.20;99.90;;;;;;4937358;29;20032;-75
2021/01/19 08:59:05;;;;;;;3.75;1.95;;;-11.70;99.90;;;;;;4937229;29;20036;-75
2021/01/19 09:01:31;;;;;;;2.50;2.22;;;-12.00;99.90;;;;;;4937142;29;20120;-75
2021/01/19 09:03:59;;;;;;;2.90;2.17;;;-12.10;99.90;;;;;;4937274;29;20119;-75
2021/01/19 09:06:25;;;;;;;3.35;2.33;;;-12.30;99.90;;;;;;4937196;29;20115;-75
2021/01/19 09:08:56;;;;;;;4.25;2.30;;;-12.50;99.90;;;;;;4937127;29;20035;-75
2021/01/19 09:11:30;;;;;;;5.13;2.28;;;-12.60;99.90;;;;;;4937256;29;20441;-74
2021/01/19 09:14:09;;;;;;;5.03;2.80;;;-12.70;99.90;;;;;;4936871;29;20051;-74
2021/01/19 09:16:36;;;;;;;7.53;2.20;;;-12.80;99.90;;;;;;4937105;29;20028;-74
2021/01/19 09:19:07;;;;;;;5.38;2.70;;;-12.80;99.90;;;;;;4935752;29;20036;-74
2021/01/19 09:21:35;;;;;;;5.47;2.90;;;-12.80;99.50;;;;;;4937107;29;20020;-74
2021/01/19 09:24:01;;;;;;;5.72;3.00;;;-12.90;99.90;;;;;;4951422;29;20040;-74
2021/01/19 09:26:27;;;;;;;3.38;2.28;;;-12.90;98.50;;;;;;4951451;29;20037;-74
2021/01/19 09:28:53;;;;;;;2.40;2.13;;;-11.40;99.90;;;;;;4954089;29;20372;-74
2021/01/19 09:31:24;;;;;;;6.60;2.85;;;-10.30;99.90;;;;;;4955972;29;20034;-74
2021/01/19 09:33:54;;;;;;;5.10;2.75;;;-10.50;99.90;;;;;;4955712;29;20031;-75
2021/01/19 09:36:21;;;;;;;4.93;3.13;;;-11.00;99.90;;;;;;4955886;29;20031;-74
2021/01/19 09:38:58;;;;;;;2.53;2.33;;;-11.30;99.90;;;;;;4955906;29;20028;-74
2021/01/19 09:41:25;;;;;;;5.50;3.33;;;-11.40;99.90;;;;;;4955578;29;20043;-76
2021/01/19 09:43:52;;;;;;;8.10;3.30;;;-10.30;99.90;;;;;;4969386;28;20019;-75
2021/01/19 09:46:22;;;;;;;9.93;4.53;;;-10.40;99.90;;;;;;4953274;29;20174;-76
2021/01/19 09:48:51;;;;;;;16.98;6.88;;;-10.90;99.90;;;;;;4952967;29;20458;-74
2021/01/19 09:51:25;;;;;;;18.65;6.63;;;-11.30;99.90;;;;;;4954004;29;20403;-75
2021/01/19 09:53:55;;;;;;;14.35;5.82;;;-11.50;99.90;;;;;;4955424;28;20467;-75
2021/01/19 09:56:20;;;;;;;17.00;6.30;;;-11.70;99.90;;;;;;4955632;29;20024;-75
2021/01/19 09:58:46;;;;;;;12.32;6.25;;;-11.80;99.90;;;;;;4954858;28;20038;-75
2021/01/19 10:01:22;;;;;;;13.23;5.25;;;-11.90;99.90;;;;;;4955286;29;20023;-76
2021/01/19 10:03:49;;;;;;;6.53;3.63;;;-11.90;99.40;;;;;;4954781;29;20046;-75
2021/01/19 10:06:21;;;;;;;4.00;2.78;;;-11.80;99.90;;;;;;4954508;29;20490;-74
2021/01/19 10:08:51;;;;;;;11.60;3.97;;;-11.30;99.90;;;;;;4953718;28;20028;-71
2021/01/19 10:11:34;;;;;;;4.40;2.83;;;-11.40;99.90;;;;;;4955085;29;20122;-71
2021/01/19 10:14:12;;;;;;;4.03;2.63;;;-11.60;99.50;;;;;;4954787;29;20066;-73
2021/01/19 10:16:48;;;;;;;5.18;2.83;;;-11.70;98.80;;;;;;4953805;29;20042;-71
2021/01/19 10:19:28;;;;;;;4.50;2.55;;;-11.80;98.50;;;;;;4955347;28;20031;-72
2021/01/19 10:22:02;;;;;;;7.13;3.47;;;-11.90;97.20;;;;;;4954518;28;20487;-73
2021/01/19 10:24:27;;;;;;;8.25;2.38;;;-11.90;96.60;;;;;;4953655;29;20380;-73
2021/01/19 10:27:10;;;;;;;7.45;3.58;;;-12.00;96.20;;;;;;4954099;29;20034;-73
2021/01/19 10:29:39;;;;;;;8.95;3.80;;;-12.10;96.70;;;;;;4964250;28;20023;-72
2021/01/19 10:32:08;;;;;;;13.68;4.25;;;-12.10;96.90;;;;;;4954612;29;20027;-73
2021/01/19 10:34:34;;;;;;;9.23;4.63;;;-12.10;96.50;;;;;;4955199;29;20038;-74
2021/01/19 10:37:01;;;;;;;61.13;20.55;;;-12.10;96.90;;;;;;4950236;29;20023;-72
2021/01/19 10:39:29;;;;;;;85.07;28.20;;;-12.10;97.10;;;;;;4952205;29;20035;-72
2021/01/19 10:41:58;;;;;;;33.65;10.48;;;-12.00;97.40;;;;;;4954820;28;20078;-72
2021/01/19 10:44:25;;;;;;;18.92;8.02;;;-12.10;97.00;;;;;;4953975;28;20028;-70
2021/01/19 10:46:58;;;;;;;14.55;5.88;;;-12.10;96.50;;;;;;4953728;29;20023;-70
2021/01/19 10:49:29;;;;;;;9.88;4.47;;;-12.10;96.50;;;;;;4953959;29;20027;-70
2021/01/19 10:51:56;;;;;;;21.42;7.20;;;-12.10;96.60;;;;;;4953788;29;20383;-70
2021/01/19 10:54:22;;;;;;;11.68;5.53;;;-12.10;96.70;;;;;;4954381;29;20031;-70
2021/01/19 10:57:08;;;;;;;6.35;3.60;;;-12.10;96.70;;;;;;4954566;28;20037;-70
2021/01/19 10:59:34;;;;;;;12.50;3.33;;;-12.10;96.70;;;;;;4954352;29;20065;-69
2021/01/19 11:02:00;;;;;;;14.00;7.13;;;-12.00;96.10;;;;;;4952947;28;20035;-69
2021/01/19 11:04:26;;;;;;;8.25;5.07;;;-12.10;96.30;;;;;;4954317;29;20045;-69
2021/01/19 11:06:52;;;;;;;12.98;5.28;;;-12.00;96.40;;;;;;4954147;29;20030;-69
2021/01/19 11:09:19;;;;;;;7.75;4.40;;;-12.00;96.50;;;;;;4954236;29;20035;-69
2021/01/19 11:11:45;;;;;;;7.30;3.55;;;-12.00;96.50;;;;;;4954310;29;20054;-69
2021/01/19 11:14:11;;;;;;;6.90;3.70;;;-12.00;96.50;;;;;;4954237;29;20047;-69
2021/01/19 11:16:41;;;;;;;6.78;3.47;;;-11.90;96.30;;;;;;4954185;29;20105;-69
2021/01/19 11:19:08;;;;;;;;;;;-12.00;96.20;;;;;;4954336;29;20035;-69
2021/01/19 11:21:35;;;;;;;7.40;3.92;;;-12.00;96.50;;;;;;4954367;28;19906;-70
2021/01/19 11:24:02;;;;;;;5.93;3.33;;;-11.90;96.70;;;;;;4953932;29;20487;-69
2021/01/19 11:26:28;;;;;;;10.73;3.30;;;-11.90;96.60;;;;;;4954253;29;20038;-69
2021/01/19 11:28:55;;;;;;;6.72;3.60;;;-11.90;96.60;;;;;;4953884;28;20111;-70
2021/01/19 11:31:26;;;;;;;11.40;3.35;;;-11.90;96.80;;;;;;4952613;29;20070;-69
2021/01/19 11:33:53;;;;;;;6.22;3.20;;;-11.90;96.50;;;;;;4952911;29;20062;-69
2021/01/19 11:36:28;;;;;;;9.20;3.42;;;-11.80;96.70;;;;;;4953383;28;20039;-70
2021/01/19 11:38:56;;;;;;;7.35;3.00;;;-11.80;97.10;;;;;;4953375;29;20027;-72
2021/01/19 11:41:27;;;;;;;3.40;2.95;;;-11.80;97.10;;;;;;4953113;28;20031;-71
2021/01/19 11:43:54;;;;;;;3.45;2.80;;;-11.70;97.30;;;;;;4953522;28;20078;-72
2021/01/19 11:46:25;;;;;;;10.77;3.63;;;-11.70;97.20;;;;;;4953908;29;20033;-73
2021/01/19 11:48:53;;;;;;;3.97;2.65;;;-11.60;97.10;;;;;;4953758;28;20030;-71
2021/01/19 11:51:22;;;;;;;5.25;3.25;;;-11.20;99.90;;;;;;4954127;29;20035;-71
2021/01/19 11:53:50;;;;;;;5.53;3.03;;;-11.20;99.90;;;;;;4953938;29;20032;-71
2021/01/19 11:56:17;;;;;;;9.25;3.47;;;-11.20;99.90;;;;;;4953452;28;20538;-69
2021/01/19 11:58:44;;;;;;;9.95;5.03;;;-11.30;99.40;;;;;;4953663;29;20074;-71
2021/01/19 12:01:20;;;;;;;11.55;5.88;;;-11.30;98.60;;;;;;4953262;29;20455;-70
2021/01/19 12:03:46;;;;;;;6.22;3.40;;;-11.40;98.30;;;;;;4953483;29;20118;-70
2021/01/19 12:06:13;;;;;;;18.40;5.28;;;-11.40;98.10;;;;;;4953136;29;20432;-70
2021/01/19 12:08:39;;;;;;;6.10;4.30;;;-11.40;98.20;;;;;;4953971;29;20039;-70
2021/01/19 12:11:11;;;;;;;7.30;3.03;;;-11.40;98.30;;;;;;4953883;29;20364;-70
2021/01/19 12:13:37;;;;;;;7.65;4.43;;;-11.40;98.20;;;;;;4953552;29;20035;-70
2021/01/19 12:16:04;;;;;;;5.65;3.83;;;-11.40;98.20;;;;;;4953819;29;20102;-69
2021/01/19 12:18:30;;;;;;;6.25;3.30;;;-11.40;98.20;;;;;;4953595;29;20090;-69
2021/01/19 12:20:56;;;;;;;5.65;3.28;;;-11.40;98.00;;;;;;4953415;29;20027;-70
2021/01/19 12:23:23;;;;;;;4.35;3.00;;;-11.40;98.00;;;;;;4953415;29;20058;-70
2021/01/19 12:25:49;;;;;;;4.72;3.55;;;-11.40;98.30;;;;;;4953637;29;20027;-71
2021/01/19 12:28:15;;;;;;;6.65;3.22;;;-11.40;99.00;;;;;;4953504;29;20026;-71
2021/01/19 12:30:41;;;;;;;6.25;3.22;;;-11.30;99.10;;;;;;4953680;29;20039;-70
2021/01/19 12:33:06;;;;;;;6.55;3.08;;;-11.30;99.30;;;;;;4953541;29;20365;-70
2021/01/19 12:35:32;;;;;;;5.60;3.30;;;-11.30;99.10;;;;;;4953520;29;20098;-70
2021/01/19 12:37:58;;;;;;;7.18;3.25;;;-11.30;99.50;;;;;;4953270;29;20094;-70
2021/01/19 12:40:24;;;;;;;4.55;2.88;;;-11.40;99.90;;;;;;4953422;29;20059;-71
2021/01/19 12:42:50;;;;;;;4.57;2.65;;;-11.30;99.90;;;;;;4953308;29;20102;-70
2021/01/19 12:45:17;;;;;;;4.13;2.42;;;-11.30;99.90;;;;;;4953227;29;20043;-71
2021/01/19 12:47:47;;;;;;;3.42;2.33;;;-11.30;99.90;;;;;;4953354;29;20031;-71
2021/01/19 12:50:13;;;;;;;;;;;-11.30;99.90;;;;;;4953641;29;20055;-72
2021/01/19 12:52:38;;;;;;;3.15;2.00;;;-11.30;99.90;;;;;;4954078;28;19914;-71
2021/01/19 12:55:04;;;;;;;5.32;2.47;;;-11.30;99.90;;;;;;4956504;29;20034;-71
2021/01/19 12:57:30;;;;;;;6.07;3.03;;;-11.40;99.90;;;;;;4956665;29;20059;-72
2021/01/19 12:59:56;;;;;;;5.22;2.53;;;-11.40;99.90;;;;;;4955296;29;20068;-70
2021/01/19 13:02:22;;;;;;;2.33;2.13;;;-11.40;99.90;;;;;;4956218;29;20023;-70
2021/01/19 13:04:47;;;;;;;5.47;2.58;;;-11.40;99.90;;;;;;4956239;29;20069;-72
2021/01/19 13:07:15;;;;;;;1.42;1.33;;;-11.30;99.90;;;;;;4955009;29;20054;-72
2021/01/19 13:09:42;;;;;;;17.40;2.65;;;-10.90;99.90;;;;;;4956453;29;20118;-71
2021/01/19 13:12:10;;;;;;;5.93;2.80;;;-9.30;99.90;;;;;;4956421;28;20027;-71
2021/01/19 13:14:36;;;;;;;4.97;3.08;;;-9.80;99.90;;;;;;4956265;29;20047;-71
2021/01/19 13:17:02;;;;;;;4.90;2.65;;;-10.20;99.90;;;;;;4956235;28;20104;-71
2021/01/19 13:19:28;;;;;;;5.75;2.85;;;-10.50;99.90;;;;;;4956246;29;20131;-71
2021/01/19 13:22:00;;;;;;;5.43;2.67;;;-10.70;99.90;;;;;;4956190;29;20023;-71
2021/01/19 13:24:26;;;;;;;2.45;2.10;;;-10.80;99.90;;;;;;4956149;29;20035;-71
2021/01/19 13:26:52;;;;;;;5.75;2.75;;;-10.90;99.90;;;;;;4956254;29;20092;-71
2021/01/19 13:29:18;;;;;;;7.82;3.80;;;-10.90;99.90;;;;;;4954841;29;20520;-71
2021/01/19 13:31:44;;;;;;;5.47;2.75;;;-11.00;99.90;;;;;;4954856;29;20028;-71
2021/01/19 13:34:10;;;;;;;4.50;3.20;;;-10.90;99.90;;;;;;4955970;29;20023;-71
2021/01/19 13:36:36;;;;;;;5.90;3.22;;;-10.90;99.90;;;;;;4955933;28;20063;-71
2021/01/19 13:39:03;;;;;;;2.95;1.85;;;-10.90;99.90;;;;;;4955805;29;20027;-72
2021/01/19 13:41:28;;;;;;;3.40;2.42;;;-10.00;99.90;;;;;;4955839;28;20106;-71
2021/01/19 13:43:54;;;;;;;5.45;3.40;;;-8.20;99.90;;;;;;4956463;29;20113;-74
2021/01/19 13:46:20;;;;;;;6.18;3.20;;;-8.50;99.90;;;;;;4955739;29;20107;-78
2021/01/19 13:48:46;;;;;;;7.45;2.90;;;-9.10;99.90;;;;;;4955712;29;20031;-78
2021/01/19 13:51:12;;;;;;;4.82;3.33;;;-9.70;99.90;;;;;;4955491;29;20110;-75
2021/01/19 13:53:41;;;;;;;6.82;3.35;;;-10.00;99.90;;;;;;4955499;29;20038;-75
2021/01/19 13:56:07;;;;;;;5.82;3.25;;;-10.20;99.90;;;;;;4955394;28;20023;-74
2021/01/19 13:58:33;;;;;;;7.80;3.17;;;-10.30;99.90;;;;;;4955794;29;20051;-75
2021/01/19 14:01:00;;;;;;;9.52;3.35;;;-10.30;99.90;;;;;;4955460;29;20070;-75
2021/01/19 14:03:26;;;;;;;6.10;2.92;;;-10.40;99.90;;;;;;4955687;29;20047;-74
2021/01/19 14:05:52;;;;;;;4.28;2.88;;;-10.40;99.90;;;;;;4954802;28;20566;-75
2021/01/19 14:08:18;;;;;;;5.47;3.17;;;-10.50;99.90;;;;;;4955421;29;20098;-75
2021/01/19 14:10:43;;;;;;;7.63;3.88;;;-10.50;99.90;;;;;;4955606;29;20074;-75
2021/01/19 14:13:09;;;;;;;7.00;3.33;;;-10.60;99.90;;;;;;4955117;29;20483;-75
2021/01/19 14:15:35;;;;;;;6.28;3.63;;;-10.60;99.90;;;;;;4954967;29;20078;-75
2021/01/19 14:18:02;;;;;;;13.50;3.75;;;-10.60;99.90;;;;;;4955356;29;20059;-75
2021/01/19 14:20:27;;;;;;;7.72;4.00;;;-10.50;99.90;;;;;;4954993;29;20102;-75
2021/01/19 14:22:53;;;;;;;9.88;3.92;;;-10.50;99.90;;;;;;4955126;29;20441;-74
2021/01/19 14:25:19;;;;;;;6.45;3.03;;;-10.50;99.90;;;;;;4954870;29;20126;-74
2021/01/19 14:27:45;;;;;;;9.68;3.88;;;-10.50;99.90;;;;;;4954685;29;20110;-75
2021/01/19 14:30:11;;;;;;;10.95;3.75;;;-10.40;99.90;;;;;;4954038;29;20035;-74
2021/01/19 14:32:37;;;;;;;7.93;3.50;;;-10.40;99.90;;;;;;4954488;29;20031;-74
2021/01/19 14:35:04;;;;;;;11.45;3.72;;;-10.40;99.90;;;;;;4954262;29;20034;-75
2021/01/19 14:37:30;;;;;;;8.43;3.53;;;-10.40;99.90;;;;;;4954309;29;20035;-74
2021/01/19 14:39:56;;;;;;;7.38;3.53;;;-10.30;99.90;;;;;;4954505;29;20028;-74
2021/01/19 14:42:23;;;;;;;11.68;3.47;;;-10.30;99.90;;;;;;4951649;29;20030;-75
2021/01/19 14:44:49;;;;;;;12.93;4.30;;;-10.40;99.90;;;;;;4954171;29;20069;-75
2021/01/19 14:47:15;;;;;;;8.23;4.18;;;-10.40;99.90;;;;;;4954008;28;20019;-75
2021/01/19 14:49:41;;;;;;;10.25;4.60;;;-10.30;99.90;;;;;;4954157;29;20078;-75
2021/01/19 14:52:09;;;;;;;8.45;3.95;;;-10.30;99.90;;;;;;4953914;29;20103;-73
2021/01/19 14:54:35;;;;;;;6.22;3.38;;;-10.30;99.90;;;;;;4954222;29;20083;-73
2021/01/19 14:57:02;;;;;;;6.97;3.75;;;-10.20;99.90;;;;;;4954084;29;20399;-73
2021/01/19 14:59:27;;;;;;;6.00;3.30;;;-10.20;99.90;;;;;;4954299;29;20035;-72
2021/01/19 15:01:53;;;;;;;7.70;3.63;;;-10.20;99.90;;;;;;4953866;29;20522;-73
2021/01/19 15:04:19;;;;;;;5.50;3.30;;;-10.20;99.90;;;;;;4954491;29;20081;-74
2021/01/19 15:06:55;;;;;;;5.35;3.10;;;-10.20;99.90;;;;;;4954592;29;20023;-74
2021/01/19 15:09:29;;;;;;;5.85;3.28;;;-10.20;99.90;;;;;;4954013;29;20030;-74
2021/01/19 15:12:09;;;;;;;7.30;3.25;;;-10.20;99.90;;;;;;4953984;29;20027;-74
2021/01/19 15:14:38;;;;;;;8.30;3.13;;;-10.20;99.90;;;;;;4958143;28;20047;-74
2021/01/19 15:17:04;;;;;;;7.13;3.20;;;-10.10;99.90;;;;;;4961851;28;20043;-76
2021/01/19 15:19:31;;;;;;;6.68;2.88;;;-10.10;99.90;;;;;;4953920;29;20034;-75
2021/01/19 15:22:14;;;;;;;7.63;3.50;;;-10.10;99.90;;;;;;4954177;28;20023;-77
2021/01/19 15:24:40;;;;;;;12.00;5.63;;;-10.00;99.90;;;;;;4954037;29;20491;-76
2021/01/19 15:27:07;;;;;;;16.20;6.15;;;-10.00;99.90;;;;;;4953963;29;20030;-76
2021/01/19 15:29:33;;;;;;;7.40;3.92;;;-10.00;99.90;;;;;;4953973;29;20042;-76
2021/01/19 15:31:59;;;;;;;8.75;3.90;;;-9.90;99.90;;;;;;4954283;29;20046;-76
2021/01/19 15:34:26;;;;;;;7.93;3.30;;;-9.80;99.90;;;;;;4953957;28;20110;-75
2021/01/19 15:36:55;;;;;;;6.10;2.92;;;-9.80;99.90;;;;;;4953997;29;20023;-75
2021/01/19 15:39:21;;;;;;;5.57;3.33;;;-9.80;99.90;;;;;;4953782;28;20046;-76
2021/01/19 15:41:47;;;;;;;5.20;2.60;;;-9.70;99.90;;;;;;4953996;29;20062;-76
2021/01/19 15:44:13;;;;;;;6.35;3.25;;;-9.70;99.90;;;;;;4953791;29;20050;-75
2021/01/19 15:46:39;;;;;;;5.13;3.00;;;-9.70;99.90;;;;;;4953654;29;20454;-75
2021/01/19 15:49:08;;;;;;;9.20;4.28;;;-9.60;99.90;;;;;;4953513;29;20027;-76
2021/01/19 15:51:34;;;;;;;17.23;5.68;;;-9.60;99.90;;;;;;4953841;29;20031;-77
2021/01/19 15:54:01;;;;;;;29.55;8.80;;;-9.50;99.90;;;;;;4953719;29;20034;-77
2021/01/19 15:56:31;;;;;;;15.27;4.93;;;-9.50;99.90;;;;;;4953761;29;20027;-77
2021/01/19 15:58:59;;;;;;;5.20;2.80;;;-9.50;99.90;;;;;;4953795;29;20550;-77
2021/01/19 16:01:25;;;;;;;8.73;4.22;;;-9.40;99.90;;;;;;4953637;29;20039;-77
2021/01/19 16:03:51;;;;;;;9.50;3.50;;;-9.40;99.90;;;;;;4953700;29;20183;-77
2021/01/19 16:06:17;;;;;;;17.17;4.95;;;-9.40;99.90;;;;;;4953586;29;20117;-77
2021/01/19 16:08:43;;;;;;;20.17;6.07;;;-9.40;99.90;;;;;;4953797;29;20464;-77
2021/01/19 16:11:09;;;;;;;17.45;6.95;;;-9.40;99.90;;;;;;4953633;29;20146;-77
2021/01/19 16:13:38;;;;;;;12.55;4.13;;;-9.40;99.90;;;;;;4952559;29;20551;-77
2021/01/19 16:16:08;;;;;;;10.30;3.70;;;-9.30;99.90;;;;;;4952401;29;20058;-77
2021/01/19 16:18:35;;;;;;;11.52;4.43;;;-9.30;99.90;;;;;;4952776;29;20034;-77
2021/01/19 16:21:01;;;;;;;10.60;3.95;;;-9.20;99.90;;;;;;4953651;29;20030;-76
2021/01/19 16:23:27;;;;;;;11.55;4.22;;;-9.20;99.90;;;;;;4953478;29;20059;-76
2021/01/19 16:25:56;;;;;;;14.40;6.13;;;-9.20;99.90;;;;;;4953485;29;20482;-76
2021/01/19 16:28:22;;;;;;;9.52;4.38;;;-9.10;99.90;;;;;;4955336;28;20424;-76
2021/01/19 16:30:50;;;;;;;5.65;3.05;;;-9.10;99.90;;;;;;4957163;29;20057;-76
2021/01/19 16:33:16;;;;;;;4.43;2.47;;;-9.10;99.90;;;;;;4957120;29;20534;-76
2021/01/19 16:35:42;;;;;;;4.07;2.72;;;-9.10;99.90;;;;;;4955731;29;20167;-77
2021/01/19 16:38:08;;;;;;;6.55;2.95;;;-9.00;99.90;;;;;;4957319;29;20102;-77
2021/01/19 16:40:35;;;;;;;7.13;3.05;;;-9.00;99.90;;;;;;4956942;29;20031;-74
2021/01/19 16:43:01;;;;;;;10.40;3.53;;;-9.00;99.90;;;;;;4957177;29;20506;-77
2021/01/19 16:45:26;;;;;;;6.88;3.33;;;-8.90;99.90;;;;;;4957096;29;20070;-78
2021/01/19 16:47:52;;;;;;;6.47;3.47;;;-8.90;99.90;;;;;;4957163;29;20023;-79
2021/01/19 16:50:18;;;;;;;4.85;2.70;;;-8.90;99.90;;;;;;4957051;29;20114;-79
2021/01/19 16:52:44;;;;;;;5.70;3.47;;;-8.80;99.90;;;;;;4957062;29;20016;-77
2021/01/19 16:55:10;;;;;;;6.40;3.45;;;-8.80;99.90;;;;;;4956856;29;20038;-78
2021/01/19 16:57:37;;;;;;;8.50;3.53;;;-8.00;99.90;;;;;;4956800;29;20031;-72
2021/01/19 17:00:06;;;;;;;3.92;2.35;;;-8.00;99.90;;;;;;4956725;29;20118;-76
2021/01/19 17:02:31;;;;;;;5.97;2.97;;;-7.40;99.90;;;;;;4956621;29;20016;-79